Terminal Aerodrome Forecast
Issued by NWS Charleston, WV

Current Version | Previous Version | Graphics & Text | Print | Product List | Glossary On
Versions: 1 2 3 4 5 6 7 8 9 10 11 12 13 14 15 16 17 18 19 20 21
354
FTUS41 KRLX 200800 AAA
TAFPKB
TAF AMD
KPKB 200846Z 2009/2106 00000KT P6SM SKC
     FM201200 35004KT P6SM BKN025
     FM201700 33005KT P6SM BKN045
     FM201800 32006KT P6SM SCT050
     FM202000 32005KT P6SM BKN035=

USA.gov is the U.S. government's official web portal to all federal, state and local government web resources and services.